Interbay, Washington
Current Conditions -  °F | °C
As of 1:53 AM on Friday 28 Nov 2014 (Local Time) from KBFI Reporting Station
Light Rain Light Rain  
Wind Chill: 57°   Ceiling: 2100
Heat Index: 57°   Visibility: 10mi
Dew Point: 49°   Wind: 10mph
Humidity: 74%   Direction: 180°S
Pressure: 29.65"   Gusts: NA
Location:  47.6388°N, 122.37°W
Report Text: KBFI 280953Z 18009KT 10SM -RA BKN021 BKN026 OVC031 14/09 A2965 RMK AO2 SLP041 P0001 T01390094
Loading
Personal Weather Stations






























Interactive Weather Map New forecast layout! Learn more

10-Day Weather Forecast

Advertisements
Track Severe Weather on mobile